Time;durP1;ratioP1;P1;durP2;ratioP2;P2;SDS_P1;SDS_P2;PMS_P1;PMS_P2;Temp;Humidity;BMP_temperature;BMP_pressure;BME280_temperature;BME280_humidity;BME280_pressure;Samples;Min_cycle;Max_cycle;Signal;HPM_P1;HPM_P2
2022/10/02 00:03:11;;;;;;;0.40;0.40;;;;;;;17.28;100.00;100811.75;20790774;27;20516;-75
2022/10/02 00:13:46;;;;;;;1.88;0.40;;;;;;;17.38;100.00;100836.03;20709576;28;20137;-75
2022/10/02 00:23:56;;;;;;;0.33;0.30;;;;;;;17.37;100.00;100845.94;20728503;28;20081;-76
2022/10/02 00:34:19;;;;;;;1.13;0.50;;;;;;;17.37;100.00;100851.31;20710165;28;20049;-76
2022/10/02 00:44:33;;;;;;;0.57;0.40;;;;;;;17.35;100.00;100858.66;20713367;28;20387;-76
2022/10/02 00:55:08;;;;;;;0.85;0.50;;;;;;;17.36;100.00;100876.50;21004926;27;20057;-75
2022/10/02 01:05:10;;;;;;;0.83;0.60;;;;;;;17.36;100.00;100886.44;20869419;27;20045;-75
2022/10/02 01:15:15;;;;;;;1.35;0.50;;;;;;;17.09;100.00;100850.16;20923258;27;20280;-76
2022/10/02 01:25:17;;;;;;;1.15;0.63;;;;;;;17.35;100.00;100899.03;20889746;27;20108;-76
2022/10/02 01:35:20;;;;;;;0.77;0.40;;;;;;;17.34;100.00;100891.94;20950262;27;20447;-75
2022/10/02 01:45:52;;;;;;;0.55;0.30;;;;;;;16.77;100.00;100810.72;20926616;27;20127;-76
2022/10/02 01:56:18;;;;;;;0.57;0.30;;;;;;;17.35;100.00;100906.25;20803953;27;20045;-76
2022/10/02 02:06:26;;;;;;;;;;;;;;;17.34;100.00;100904.56;20840037;27;20066;-75
2022/10/02 02:16:41;;;;;;;0.75;0.30;;;;;;;17.25;100.00;100888.22;20905850;27;19959;-75
2022/10/02 02:26:44;;;;;;;0.68;0.40;;;;;;;17.24;100.00;100888.34;20958071;27;20412;-76
2022/10/02 02:36:47;;;;;;;1.27;0.50;;;;;;;17.30;100.00;100893.19;20867195;27;20075;-75
2022/10/02 02:47:02;;;;;;;0.63;0.40;;;;;;;17.02;100.00;100857.06;20954874;27;20061;-75
2022/10/02 02:57:05;;;;;;;0.63;0.30;;;;;;;17.32;100.00;100906.53;20911673;27;20051;-76
2022/10/02 03:07:10;;;;;;;0.50;0.38;;;;;;;16.93;100.00;100856.84;20930030;27;20045;-75
2022/10/02 03:17:44;;;;;;;0.50;0.35;;;;;;;17.13;100.00;100886.56;20878307;27;20524;-76
2022/10/02 03:27:52;;;;;;;0.80;0.40;;;;;;;17.30;100.00;100912.03;20891389;27;20052;-76
2022/10/02 03:37:57;;;;;;;0.75;0.30;;;;;;;17.30;100.00;100930.88;20864636;27;20045;-76
2022/10/02 03:47:59;;;;;;;0.95;0.50;;;;;;;17.29;100.00;100918.41;20915819;27;20072;-76
2022/10/02 03:58:04;;;;;;;0.95;0.45;;;;;;;17.29;100.00;100928.31;20913857;27;20528;-76
2022/10/02 04:08:15;;;;;;;;;;;;;;;17.29;100.00;100934.53;20971122;27;20532;-75
2022/10/02 04:18:21;;;;;;;0.95;0.30;;;;;;;17.02;100.00;100900.09;20783312;27;19952;-75
2022/10/02 04:28:27;;;;;;;0.38;0.30;;;;;;;16.92;100.00;100892.78;20730001;27;20052;-75
2022/10/02 04:39:01;;;;;;;0.70;0.50;;;;;;;17.19;100.00;100939.84;20742097;27;20516;-75
2022/10/02 04:49:24;;;;;;;0.50;0.40;;;;;;;17.29;100.00;100971.38;20750932;27;20559;-76
2022/10/02 04:59:44;;;;;;;0.47;0.30;;;;;;;17.28;100.00;100964.28;20733681;27;20591;-75
2022/10/02 05:10:12;;;;;;;0.38;0.30;;;;;;;17.19;100.00;100956.00;20740721;27;20512;-75
2022/10/02 05:20:35;;;;;;;0.47;0.40;;;;;;;17.28;100.00;100991.19;20905268;27;20045;-76
2022/10/02 05:30:47;;;;;;;0.60;0.32;;;;;;;17.27;100.00;101000.25;20871894;27;20138;-75
2022/10/02 05:41:00;;;;;;;0.63;0.55;;;;;;;17.20;100.00;101003.44;20886871;27;20049;-75
2022/10/02 05:51:06;;;;;;;0.20;0.20;;;;;;;17.20;100.00;101007.97;21207272;27;20047;-75
2022/10/02 06:01:13;;;;;;;0.93;0.32;;;;;;;17.24;100.00;101029.13;21215923;27;20059;-75
2022/10/02 06:11:19;;;;;;;0.98;0.35;;;;;;;17.25;100.00;101022.75;21215416;27;20047;-75
2022/10/02 06:21:45;;;;;;;0.82;0.50;;;;;;;17.25;100.00;101027.28;21215208;27;20125;-75
2022/10/02 06:32:00;;;;;;;0.20;0.20;;;;;;;16.94;100.00;101000.22;21213848;27;20396;-75
2022/10/02 06:42:31;;;;;;;0.50;0.30;;;;;;;17.26;100.00;101077.41;21155295;27;20513;-75
2022/10/02 06:52:46;;;;;;;0.40;0.20;;;;;;;17.24;100.00;101082.06;20828265;27;20056;-75
2022/10/02 07:03:15;;;;;;;0.88;0.30;;;;;;;16.62;100.00;100982.22;20700594;28;20495;-75
2022/10/02 07:13:34;;;;;;;1.02;0.65;;;;;;;17.25;100.00;101098.09;20764126;27;20045;-75
2022/10/02 07:23:43;;;;;;;0.85;0.43;;;;;;;17.26;100.00;101107.00;20761229;27;20051;-74
2022/10/02 07:34:11;;;;;;;0.40;0.30;;;;;;;16.62;100.00;101001.06;20724659;27;20057;-74
2022/10/02 07:44:51;;;;;;;0.40;0.30;;;;;;;17.32;100.00;101128.03;20745549;27;20054;-74
2022/10/02 07:55:02;;;;;;;0.47;0.25;;;;;;;17.33;100.00;101145.88;20738810;27;20056;-74
2022/10/02 08:05:13;;;;;;;3.20;0.55;;;;;;;17.33;100.00;101172.78;20798718;27;20056;-74
2022/10/02 08:15:18;;;;;;;8.38;1.50;;;;;;;17.23;100.00;101135.03;20746851;27;20092;-74
2022/10/02 08:25:24;;;;;;;4.15;0.95;;;;;;;17.64;100.00;101169.38;20746272;27;20517;-74
2022/10/02 08:35:40;;;;;;;7.03;1.27;;;;;;;17.68;100.00;101181.63;20768983;27;20056;-74
2022/10/02 08:46:01;;;;;;;3.40;0.95;;;;;;;17.68;100.00;101184.34;20795927;27;20049;-74
2022/10/02 08:56:12;;;;;;;4.38;0.90;;;;;;;17.64;100.00;101199.88;20747265;27;20054;-74
2022/10/02 09:06:41;;;;;;;2.20;0.80;;;;;;;17.61;100.00;101213.59;20748010;27;20053;-75
2022/10/02 09:17:14;;;;;;;2.28;0.90;;;;;;;17.58;100.00;101218.34;20733587;27;20058;-73
2022/10/02 09:27:15;;;;;;;3.83;1.10;;;;;;;17.65;100.00;101230.34;20747291;27;20151;-74
2022/10/02 09:37:46;;;;;;;3.58;1.08;;;;;;;17.67;100.00;101234.63;20727603;27;20057;-74
2022/10/02 09:48:03;;;;;;;3.20;1.00;;;;;;;17.71;100.00;101224.47;20642058;27;20383;-73
2022/10/02 09:58:37;;;;;;;2.03;0.70;;;;;;;17.74;100.00;101224.22;20727763;27;20050;-75
2022/10/02 10:09:14;;;;;;;3.83;0.77;;;;;;;17.76;100.00;101245.59;20703228;27;20054;-74
2022/10/02 10:19:46;;;;;;;3.20;0.90;;;;;;;17.78;100.00;101271.44;20717664;27;20476;-74
2022/10/02 10:30:10;;;;;;;2.83;0.70;;;;;;;17.80;100.00;101274.88;20718333;27;20556;-74
2022/10/02 10:40:37;;;;;;;2.05;0.77;;;;;;;17.82;100.00;101304.34;20733226;27;20110;-74
2022/10/02 10:50:44;;;;;;;2.75;0.80;;;;;;;17.76;100.00;101304.84;20761234;27;20618;-75
2022/10/02 11:01:13;;;;;;;2.00;0.77;;;;;;;17.85;100.00;101322.09;20747197;27;20050;-75
2022/10/02 11:11:22;;;;;;;1.25;0.80;;;;;;;17.82;100.00;101313.28;20766884;27;20050;-75
2022/10/02 11:21:51;;;;;;;2.03;0.80;;;;;;;17.88;100.00;101324.53;20732206;27;20046;-75
2022/10/02 11:32:04;;;;;;;3.30;0.95;;;;;;;17.82;100.00;101337.53;20718413;27;20497;-76
2022/10/02 11:42:36;;;;;;;2.38;0.68;;;;;;;17.76;100.00;101356.00;20710619;27;20048;-74
2022/10/02 11:53:11;;;;;;;2.33;0.82;;;;;;;17.71;100.00;101369.88;20727022;27;20053;-74
2022/10/02 12:03:28;;;;;;;1.13;0.50;;;;;;;17.67;100.00;101369.25;20721382;27;20057;-74
2022/10/02 12:13:36;;;;;;;2.22;0.70;;;;;;;17.66;100.00;101378.31;20770218;27;20054;-74
2022/10/02 12:34:34;;;;;;;1.30;0.50;;;;;;;17.63;100.00;101394.72;20707544;27;20070;-74
2022/10/02 12:44:52;;;;;;;0.90;0.40;;;;;;;17.60;100.00;101396.78;20732967;27;20046;-74
2022/10/02 12:55:34;;;;;;;1.92;0.70;;;;;;;17.60;100.00;101399.47;20732138;27;20768;-74
2022/10/02 13:06:02;;;;;;;1.23;0.63;;;;;;;17.59;100.00;101408.53;20717960;27;20052;-74
2022/10/02 13:16:07;;;;;;;1.08;0.50;;;;;;;17.57;100.00;101426.63;20711529;27;20046;-74
2022/10/02 13:26:35;;;;;;;2.65;1.45;;;;;;;17.58;100.00;101422.97;20726620;27;20410;-74
2022/10/02 13:37:12;;;;;;;1.30;0.50;;;;;;;17.56;100.00;101425.78;20714628;27;20093;-74
2022/10/02 13:47:46;;;;;;;0.82;0.55;;;;;;;17.54;100.00;101431.28;20738481;27;20049;-74
2022/10/02 13:58:28;;;;;;;2.25;0.70;;;;;;;17.54;100.00;101439.38;20674162;27;20050;-74
2022/10/02 14:08:33;;;;;;;0.68;0.50;;;;;;;17.54;100.00;101447.44;20705869;27;20505;-74
2022/10/02 14:18:37;;;;;;;1.40;0.60;;;;;;;17.56;100.00;101462.63;20704286;27;20053;-75
2022/10/02 14:29:05;;;;;;;2.17;0.50;;;;;;;17.53;100.00;101479.88;20705602;27;20045;-75
2022/10/02 14:39:30;;;;;;;1.63;0.60;;;;;;;17.52;100.00;101487.09;20691247;27;20054;-75
2022/10/02 14:49:57;;;;;;;0.93;0.40;;;;;;;17.34;100.00;101475.06;20733521;27;20042;-75
2022/10/02 15:00:16;;;;;;;0.95;0.50;;;;;;;17.53;100.00;101518.41;20723927;27;20122;-75
2022/10/02 15:10:21;;;;;;;1.52;0.40;;;;;;;17.52;100.00;101534.69;20721497;27;20041;-75
2022/10/02 15:20:59;;;;;;;0.88;0.30;;;;;;;17.52;100.00;101543.63;20679679;27;20130;-75
2022/10/02 15:31:17;;;;;;;1.30;0.50;;;;;;;17.51;100.00;101558.06;20706956;27;20121;-75
2022/10/02 15:41:54;;;;;;;1.55;0.60;;;;;;;17.37;100.00;101528.66;20714016;27;20050;-75
2022/10/02 15:52:10;;;;;;;1.38;0.30;;;;;;;17.50;100.00;101572.50;20718264;27;20056;-75
2022/10/02 16:02:55;;;;;;;1.20;0.70;;;;;;;17.49;100.00;101596.84;20726017;27;20061;-74
2022/10/02 16:13:15;;;;;;;0.90;0.50;;;;;;;17.49;100.00;101616.53;20703884;27;20050;-74
2022/10/02 16:23:39;;;;;;;0.60;0.38;;;;;;;17.48;100.00;101636.34;20699638;27;20038;-75
2022/10/02 16:34:00;;;;;;;1.05;0.52;;;;;;;17.47;100.00;101637.34;20727379;27;20152;-74
2022/10/02 16:44:38;;;;;;;0.50;0.30;;;;;;;17.48;100.00;101670.50;20747081;27;20103;-74
2022/10/02 16:54:46;;;;;;;1.23;0.40;;;;;;;17.46;100.00;101678.69;20750055;27;20078;-74
2022/10/02 17:04:58;;;;;;;0.45;0.30;;;;;;;17.46;100.00;101694.84;20725311;27;20607;-75
2022/10/02 17:15:11;;;;;;;0.45;0.30;;;;;;;17.45;100.00;101698.50;20714074;27;20763;-75
2022/10/02 17:25:20;;;;;;;0.95;0.40;;;;;;;17.45;100.00;101730.81;20718027;27;20187;-75
2022/10/02 17:35:22;;;;;;;0.68;0.40;;;;;;;17.45;100.00;101735.31;20718906;27;20046;-75
2022/10/02 17:45:37;;;;;;;0.73;0.30;;;;;;;17.44;100.00;101758.69;20707834;27;20045;-75
2022/10/02 17:56:28;;;;;;;0.68;0.32;;;;;;;17.44;100.00;101771.28;20751342;27;20456;-74
2022/10/02 18:06:53;;;;;;;1.23;0.40;;;;;;;17.38;100.00;101780.69;20736898;27;20198;-74
2022/10/02 18:17:33;;;;;;;2.13;0.60;;;;;;;17.43;100.00;101801.88;20743817;27;20057;-77
2022/10/02 18:28:02;;;;;;;0.88;0.30;;;;;;;17.43;100.00;101809.94;20721294;27;20532;-74
2022/10/02 18:38:12;;;;;;;0.93;0.32;;;;;;;17.06;100.00;101765.03;20749563;27;20129;-74
2022/10/02 18:48:41;;;;;;;0.63;0.30;;;;;;;17.42;100.00;101832.44;20802141;27;20135;-74
2022/10/02 18:59:34;;;;;;;0.77;0.40;;;;;;;17.42;100.00;101838.72;20746558;27;20512;-74
2022/10/02 19:09:36;;;;;;;3.00;0.60;;;;;;;17.41;100.00;101839.69;20718751;27;20508;-75
2022/10/02 19:19:39;;;;;;;0.70;0.35;;;;;;;17.20;100.00;101810.63;20706366;27;20453;-74
2022/10/02 19:29:45;;;;;;;0.93;0.40;;;;;;;17.31;100.00;101847.53;20809490;27;20407;-74
2022/10/02 19:39:50;;;;;;;0.50;0.20;;;;;;;17.22;100.00;101832.91;20841554;27;20520;-74
2022/10/02 19:49:55;;;;;;;0.65;0.20;;;;;;;17.39;100.00;101882.84;20699432;28;20413;-74
2022/10/02 19:59:58;;;;;;;1.05;0.30;;;;;;;17.39;100.00;101893.59;20774008;27;20050;-74
2022/10/02 20:10:02;;;;;;;0.77;0.60;;;;;;;17.28;100.00;101879.22;20784038;27;20049;-74
2022/10/02 20:20:10;;;;;;;1.53;0.40;;;;;;;17.39;100.00;101914.31;20830025;27;20049;-74
2022/10/02 20:30:18;;;;;;;0.57;0.30;;;;;;;17.38;100.00;101912.56;20949843;27;20102;-74
2022/10/02 20:40:29;;;;;;;0.73;0.40;;;;;;;17.38;100.00;101931.41;20867205;27;20800;-74
2022/10/02 20:50:33;;;;;;;0.95;0.30;;;;;;;17.37;100.00;101935.09;20796129;27;20053;-74
2022/10/02 21:01:13;;;;;;;0.80;0.40;;;;;;;17.28;100.00;101925.81;20841545;27;20530;-74
2022/10/02 21:11:31;;;;;;;0.88;0.55;;;;;;;17.19;100.00;101935.38;20793006;27;20057;-74
2022/10/02 21:22:01;;;;;;;1.38;0.40;;;;;;;17.36;100.00;101971.88;20919450;27;20109;-74
2022/10/02 21:32:40;;;;;;;0.40;0.30;;;;;;;17.35;100.00;101989.00;20960021;27;20651;-74
2022/10/02 21:42:59;;;;;;;0.82;0.32;;;;;;;17.35;100.00;102001.63;20890506;27;20045;-74
2022/10/02 21:53:29;;;;;;;1.08;0.40;;;;;;;17.35;100.00;102020.47;20894206;27;20054;-74
2022/10/02 22:03:52;;;;;;;1.02;0.32;;;;;;;17.34;100.00;102021.44;20844783;27;20092;-74
2022/10/02 22:13:59;;;;;;;0.75;0.20;;;;;;;17.14;100.00;102001.25;20839895;27;20055;-74
2022/10/02 22:24:15;;;;;;;1.15;0.40;;;;;;;17.33;100.00;102039.41;20931132;27;20476;-75
2022/10/02 22:34:32;;;;;;;0.95;0.30;;;;;;;17.34;100.00;102037.59;20932249;27;20098;-74
2022/10/02 22:44:57;;;;;;;0.55;0.30;;;;;;;17.32;100.00;102044.91;20888643;27;20070;-74
2022/10/02 22:55:05;;;;;;;1.07;0.30;;;;;;;17.32;100.00;102055.66;20971247;27;20059;-79
2022/10/02 23:05:13;;;;;;;0.52;0.30;;;;;;;17.17;100.00;102034.19;20833202;27;20102;-74
2022/10/02 23:15:38;;;;;;;0.52;0.28;;;;;;;17.31;100.00;102054.78;20889623;27;20053;-74
2022/10/02 23:25:49;;;;;;;0.40;0.13;;;;;;;17.31;100.00;102062.00;20868942;27;20076;-79
2022/10/02 23:35:56;;;;;;;0.55;0.35;;;;;;;17.25;100.00;102060.59;20843957;27;20060;-74
2022/10/02 23:46:02;;;;;;;0.50;0.20;;;;;;;17.06;100.00;102044.81;20921396;27;20081;-74
2022/10/02 23:56:20;;;;;;;0.55;0.30;;;;;;;17.30;100.00;102079.13;20972438;27;20516;-74
